createdAt,value
2022-10-29T00:00:40.665Z,1014.24
2022-10-29T00:01:40.919Z,1014.27
2022-10-29T00:02:41.225Z,1014.24
2022-10-29T00:03:41.446Z,1014.31
2022-10-29T00:04:41.703Z,1014.29
2022-10-29T00:05:41.935Z,1014.33
2022-10-29T00:06:42.349Z,1014.38
2022-10-29T00:07:42.577Z,1014.32
2022-10-29T00:08:42.912Z,1014.36
2022-10-29T00:09:43.282Z,1014.41
2022-10-29T00:10:43.523Z,1014.44
2022-10-29T00:11:43.746Z,1014.42
2022-10-29T00:12:44.083Z,1014.47
2022-10-29T00:13:44.437Z,1014.53
2022-10-29T00:14:44.671Z,1014.53
2022-10-29T00:15:44.927Z,1014.53
2022-10-29T00:16:45.190Z,1014.52
2022-10-29T00:17:45.385Z,1014.49
2022-10-29T00:18:45.728Z,1014.59
2022-10-29T00:19:46.066Z,1014.48
2022-10-29T00:20:46.446Z,1014.48
2022-10-29T00:21:46.703Z,1014.54
2022-10-29T00:22:46.923Z,1014.56
2022-10-29T00:23:47.243Z,1014.56
2022-10-29T00:24:47.645Z,1014.67
2022-10-29T00:25:47.875Z,1014.65
2022-10-29T00:26:48.092Z,1014.66
2022-10-29T00:27:48.470Z,1014.66
2022-10-29T00:28:48.695Z,1014.63
2022-10-29T00:29:49.072Z,1014.63
2022-10-29T00:30:50.102Z,1014.62
2022-10-29T00:31:49.662Z,1014.65
2022-10-29T00:32:49.827Z,1014.62
2022-10-29T00:33:50.060Z,1014.61
2022-10-29T00:34:50.355Z,1014.66
2022-10-29T00:35:50.632Z,1014.64
2022-10-29T00:36:50.936Z,1014.57
2022-10-29T00:37:51.194Z,1014.62
2022-10-29T00:38:51.524Z,1014.67
2022-10-29T00:39:51.818Z,1014.68
2022-10-29T00:40:52.106Z,1014.68
2022-10-29T00:41:52.358Z,1014.73
2022-10-29T00:42:52.639Z,1014.73
2022-10-29T00:43:52.948Z,1014.71
2022-10-29T00:44:53.283Z,1014.77
2022-10-29T00:45:53.580Z,1014.70
2022-10-29T00:46:53.811Z,1014.77
2022-10-29T00:47:54.494Z,1014.76
2022-10-29T00:48:54.382Z,1014.81
2022-10-29T00:49:54.661Z,1014.73
2022-10-29T00:50:54.930Z,1014.78
2022-10-29T00:51:55.175Z,1014.80
2022-10-29T00:52:55.426Z,1014.84
2022-10-29T00:53:55.735Z,1014.82
2022-10-29T00:54:56.003Z,1014.87
2022-10-29T00:55:56.262Z,1014.84
2022-10-29T00:56:56.545Z,1014.87
2022-10-29T00:57:57.187Z,1014.86
2022-10-29T00:58:57.067Z,1014.88
2022-10-29T00:59:57.328Z,1014.79
2022-10-29T01:00:57.577Z,1014.87
2022-10-29T01:01:57.938Z,1014.82
2022-10-29T01:02:58.594Z,1014.83
2022-10-29T01:03:58.329Z,1014.85
2022-10-29T01:04:58.599Z,1014.88
2022-10-29T01:05:58.848Z,1014.89
2022-10-29T01:06:59.092Z,1014.87
2022-10-29T01:07:59.341Z,1014.85
2022-10-29T01:08:59.587Z,1014.85
2022-10-29T01:09:59.960Z,1014.84
2022-10-29T01:11:00.141Z,1014.84
2022-10-29T01:12:00.484Z,1014.83
2022-10-29T01:13:00.889Z,1014.91
2022-10-29T01:14:01.152Z,1014.88
2022-10-29T01:15:01.426Z,1014.88
2022-10-29T01:16:01.656Z,1014.88
2022-10-29T01:17:01.922Z,1014.89
2022-10-29T01:18:02.161Z,1014.90
2022-10-29T01:19:02.515Z,1014.92
2022-10-29T01:20:02.774Z,1014.95
2022-10-29T01:21:03.064Z,1014.93
2022-10-29T01:22:03.304Z,1014.96
2022-10-29T01:23:03.554Z,1014.95
2022-10-29T01:24:03.807Z,1015.00
2022-10-29T01:25:04.147Z,1015.03
2022-10-29T01:26:04.379Z,1015.00
2022-10-29T01:27:04.647Z,1015.07
2022-10-29T01:28:04.948Z,1015.05
2022-10-29T01:29:05.176Z,1015.05
2022-10-29T01:30:05.421Z,1015.05
2022-10-29T01:31:05.664Z,1015.08
2022-10-29T01:32:05.948Z,1015.07
2022-10-29T01:33:06.216Z,1015.10
2022-10-29T01:34:06.497Z,1015.08
2022-10-29T01:35:06.779Z,1015.14
2022-10-29T01:36:07.026Z,1015.04
2022-10-29T01:37:07.283Z,1015.03
2022-10-29T01:38:07.543Z,1015.00
2022-10-29T01:39:07.807Z,1015.00
2022-10-29T01:40:08.015Z,1015.10
2022-10-29T01:41:08.477Z,1015.16
2022-10-29T01:42:08.671Z,1015.12
2022-10-29T01:43:09.166Z,1015.17
2022-10-29T01:44:09.477Z,1015.14
2022-10-29T01:45:09.722Z,1015.17
2022-10-29T01:46:09.992Z,1015.20
2022-10-29T01:47:10.222Z,1015.31
2022-10-29T01:48:10.496Z,1015.11
2022-10-29T01:49:10.780Z,1015.10
2022-10-29T01:50:11.044Z,1015.03
2022-10-29T01:51:11.365Z,1015.06
2022-10-29T01:52:11.610Z,1015.06
2022-10-29T01:53:11.886Z,1015.04
2022-10-29T01:54:12.164Z,1015.11
2022-10-29T01:55:12.416Z,1015.11
2022-10-29T01:56:12.710Z,1015.09
2022-10-29T01:57:13.009Z,1015.10
2022-10-29T01:58:13.298Z,1015.10
2022-10-29T01:59:22.991Z,1015.12
2022-10-29T02:00:14.847Z,1015.18
2022-10-29T02:01:14.206Z,1015.14
2022-10-29T02:02:14.459Z,1015.13
2022-10-29T02:03:14.717Z,1015.15
2022-10-29T02:04:14.991Z,1015.20
2022-10-29T02:05:15.210Z,1015.26
2022-10-29T02:06:15.606Z,1015.20
2022-10-29T02:07:15.814Z,1015.15
2022-10-29T02:08:16.229Z,1015.16
2022-10-29T02:09:16.495Z,1015.15
2022-10-29T02:10:16.755Z,1015.13
2022-10-29T02:11:17.020Z,1015.15
2022-10-29T02:12:17.264Z,1015.12
2022-10-29T02:13:17.530Z,1015.22
2022-10-29T02:14:17.775Z,1015.30
2022-10-29T02:15:17.994Z,1015.23
2022-10-29T02:16:18.338Z,1015.19
2022-10-29T02:17:18.775Z,1015.22
2022-10-29T02:18:19.085Z,1015.25
2022-10-29T02:19:19.368Z,1015.19
2022-10-29T02:20:19.667Z,1015.25
2022-10-29T02:21:19.936Z,1015.30
2022-10-29T02:22:20.228Z,1015.30
2022-10-29T02:23:20.546Z,1015.25
2022-10-29T02:24:20.884Z,1015.27
2022-10-29T02:25:21.203Z,1015.34
2022-10-29T02:26:21.488Z,1015.23
2022-10-29T02:27:21.768Z,1015.28
2022-10-29T02:28:22.018Z,1015.22
2022-10-29T02:29:22.319Z,1015.21
2022-10-29T02:30:22.652Z,1015.24
2022-10-29T02:31:22.961Z,1015.22
2022-10-29T02:32:23.256Z,1015.27
2022-10-29T02:33:23.535Z,1015.27
2022-10-29T02:34:23.762Z,1015.24
2022-10-29T02:35:24.056Z,1015.25
2022-10-29T02:36:24.321Z,1015.20
2022-10-29T02:37:24.603Z,1015.22
2022-10-29T02:38:24.858Z,1015.20
2022-10-29T02:39:25.265Z,1015.24
2022-10-29T02:40:25.463Z,1015.22
2022-10-29T02:41:25.685Z,1015.24
2022-10-29T02:43:32.999Z,1015.18
2022-10-29T02:44:33.310Z,1015.21
2022-10-29T02:45:33.647Z,1015.32
2022-10-29T02:46:33.944Z,1015.32
2022-10-29T02:47:34.070Z,1015.32
2022-10-29T02:48:34.403Z,1015.37
2022-10-29T02:49:34.760Z,1015.37
2022-10-29T02:50:34.978Z,1015.43
2022-10-29T02:51:35.308Z,1015.45
2022-10-29T02:52:35.638Z,1015.39
2022-10-29T02:53:35.951Z,1015.46
2022-10-29T02:54:36.339Z,1015.50
2022-10-29T02:55:36.531Z,1015.46
2022-10-29T02:56:36.899Z,1015.51
2022-10-29T02:57:37.110Z,1015.44
2022-10-29T02:58:37.457Z,1015.53
2022-10-29T02:59:37.810Z,1015.44
2022-10-29T03:00:38.033Z,1015.54
2022-10-29T03:01:38.430Z,1015.54
2022-10-29T03:02:38.698Z,1015.53
2022-10-29T03:03:38.776Z,1015.50
2022-10-29T03:04:39.105Z,1015.52
2022-10-29T03:05:39.445Z,1015.55
2022-10-29T03:06:39.775Z,1015.62
2022-10-29T03:07:40.115Z,1015.65
2022-10-29T03:08:40.465Z,1015.59
2022-10-29T03:09:40.819Z,1015.61
2022-10-29T03:10:41.018Z,1015.65
2022-10-29T03:11:41.354Z,1015.58
2022-10-29T03:12:41.708Z,1015.60
2022-10-29T03:13:41.929Z,1015.59
2022-10-29T03:14:42.296Z,1015.57
2022-10-29T03:15:42.485Z,1015.57
2022-10-29T03:16:42.819Z,1015.61
2022-10-29T03:17:43.147Z,1015.57
2022-10-29T03:18:43.468Z,1015.61
2022-10-29T03:19:43.805Z,1015.55
2022-10-29T03:20:44.129Z,1015.57
2022-10-29T03:21:44.460Z,1015.57
2022-10-29T03:22:44.798Z,1015.55
2022-10-29T03:23:45.129Z,1015.59
2022-10-29T03:24:45.484Z,1015.55
2022-10-29T03:25:45.691Z,1015.57
2022-10-29T03:26:46.033Z,1015.63
2022-10-29T03:27:46.359Z,1015.54
2022-10-29T03:29:46.993Z,1015.57
2022-10-29T03:30:48.123Z,1015.62
2022-10-29T03:31:47.625Z,1015.59
2022-10-29T03:32:47.953Z,1015.57
2022-10-29T03:33:48.294Z,1015.59
2022-10-29T03:34:48.633Z,1015.64
2022-10-29T03:35:49.016Z,1015.68
2022-10-29T03:36:49.263Z,1015.66
2022-10-29T03:37:49.593Z,1015.67
2022-10-29T03:38:49.966Z,1015.64
2022-10-29T03:39:50.180Z,1015.65
2022-10-29T03:40:50.518Z,1015.67
2022-10-29T03:41:50.850Z,1015.72
2022-10-29T03:42:51.188Z,1015.75
2022-10-29T03:43:51.600Z,1015.70
2022-10-29T03:44:51.797Z,1015.70
2022-10-29T03:45:52.122Z,1015.71
2022-10-29T03:46:52.515Z,1015.69
2022-10-29T03:47:52.969Z,1015.69
2022-10-29T03:48:53.090Z,1015.69
2022-10-29T03:49:53.281Z,1015.62
2022-10-29T03:50:53.610Z,1015.66
2022-10-29T03:51:53.920Z,1015.69
2022-10-29T03:52:54.247Z,1015.63
2022-10-29T03:53:54.601Z,1015.66
2022-10-29T03:54:54.820Z,1015.69
2022-10-29T03:55:55.150Z,1015.69
2022-10-29T03:56:55.490Z,1015.74
2022-10-29T03:57:56.096Z,1015.70
2022-10-29T03:58:56.149Z,1015.71
2022-10-29T03:59:56.355Z,1015.77
2022-10-29T04:00:56.680Z,1015.80
2022-10-29T04:01:57.118Z,1015.77
2022-10-29T04:02:57.754Z,1015.81
2022-10-29T04:03:57.698Z,1015.80
2022-10-29T04:04:57.895Z,1015.82
2022-10-29T04:05:58.227Z,1015.82
2022-10-29T04:06:58.586Z,1015.80
2022-10-29T04:07:58.797Z,1015.87
2022-10-29T04:08:59.149Z,1015.85
2022-10-29T04:09:59.346Z,1015.82
2022-10-29T04:10:59.679Z,1015.92
2022-10-29T04:12:00.028Z,1015.89
2022-10-29T04:13:00.373Z,1015.89
2022-10-29T04:14:00.698Z,1015.89
2022-10-29T04:15:01.029Z,1015.94
2022-10-29T04:16:01.359Z,1015.98
2022-10-29T04:17:01.690Z,1015.98
2022-10-29T04:18:02.060Z,1015.93
2022-10-29T04:19:02.272Z,1015.91
2022-10-29T04:20:02.612Z,1015.94
2022-10-29T04:23:08.096Z,1015.94
2022-10-29T04:24:12.153Z,1015.88
2022-10-29T04:28:17.688Z,1015.83
2022-10-29T04:28:21.664Z,1015.81
2022-10-29T04:29:06.363Z,1015.87
2022-10-29T04:30:05.645Z,1015.83
2022-10-29T04:31:05.884Z,1015.81
2022-10-29T04:32:06.195Z,1015.83
2022-10-29T04:33:06.543Z,1015.85
2022-10-29T04:34:06.866Z,1015.87
2022-10-29T04:35:07.196Z,1015.84
2022-10-29T04:36:07.536Z,1015.87
2022-10-29T04:37:07.850Z,1015.78
2022-10-29T04:38:08.196Z,1015.80
2022-10-29T04:39:08.520Z,1015.87
2022-10-29T04:40:08.869Z,1015.84
2022-10-29T04:41:09.198Z,1015.84
2022-10-29T04:42:09.559Z,1015.86
2022-10-29T04:43:09.912Z,1015.80
2022-10-29T04:44:10.127Z,1015.81
2022-10-29T04:45:10.457Z,1015.79
2022-10-29T04:46:10.793Z,1015.78
2022-10-29T04:47:11.119Z,1015.88
2022-10-29T04:48:11.472Z,1015.88
2022-10-29T04:49:11.680Z,1015.87
2022-10-29T04:50:12.031Z,1015.88
2022-10-29T04:51:12.396Z,1015.87
2022-10-29T04:52:12.622Z,1015.85
2022-10-29T04:53:12.956Z,1015.78
2022-10-29T04:54:13.292Z,1015.82
2022-10-29T04:55:13.639Z,1015.83
2022-10-29T04:56:13.965Z,1015.86
2022-10-29T04:57:14.284Z,1015.93
2022-10-29T04:58:14.643Z,1015.95
2022-10-29T04:59:14.861Z,1015.98
2022-10-29T05:00:17.932Z,1015.91
2022-10-29T05:01:15.630Z,1015.90
2022-10-29T05:02:15.875Z,1015.86
2022-10-29T05:03:16.104Z,1015.88
2022-10-29T05:04:16.435Z,1015.87
2022-10-29T05:05:16.794Z,1015.79
2022-10-29T05:06:17.004Z,1015.87
2022-10-29T05:07:17.214Z,1015.84
2022-10-29T05:08:17.590Z,1015.87
2022-10-29T05:09:17.917Z,1015.87
2022-10-29T05:10:18.256Z,1015.93
2022-10-29T05:11:18.579Z,1015.92
2022-10-29T05:12:18.936Z,1015.93
2022-10-29T05:13:19.158Z,1015.91
2022-10-29T05:14:19.391Z,1015.94
2022-10-29T05:15:19.706Z,1015.95
2022-10-29T05:16:20.058Z,1015.98
2022-10-29T05:17:20.402Z,1016.06
2022-10-29T05:18:20.759Z,1016.08
2022-10-29T05:19:20.972Z,1016.10
2022-10-29T05:20:21.306Z,1016.03
2022-10-29T05:21:21.632Z,1016.07
2022-10-29T05:22:21.969Z,1016.09
2022-10-29T05:23:22.341Z,1016.08
2022-10-29T05:24:22.542Z,1016.09
2022-10-29T05:25:22.871Z,1016.06
2022-10-29T05:26:23.232Z,1016.05
2022-10-29T05:27:23.433Z,1016.07
2022-10-29T05:28:23.795Z,1016.01
2022-10-29T05:29:24.023Z,1016.02
2022-10-29T05:30:24.263Z,1016.05
2022-10-29T05:31:24.484Z,1016.05
2022-10-29T05:32:24.776Z,1016.00
2022-10-29T05:33:25.028Z,1016.02
2022-10-29T05:34:25.247Z,1016.00
2022-10-29T05:35:25.485Z,1016.07
2022-10-29T05:36:25.725Z,1016.03
2022-10-29T05:37:25.964Z,1016.01
2022-10-29T05:38:26.206Z,1016.00
2022-10-29T05:39:26.426Z,1016.05
2022-10-29T05:40:26.787Z,1016.02
2022-10-29T05:41:27.047Z,1016.13
2022-10-29T05:42:27.297Z,1016.12
2022-10-29T05:43:27.529Z,1016.13
2022-10-29T05:44:27.781Z,1016.09
2022-10-29T05:45:28.027Z,1016.03
2022-10-29T05:46:28.297Z,1016.04
2022-10-29T05:47:28.549Z,1016.04
2022-10-29T05:48:28.802Z,1016.08
2022-10-29T05:49:29.031Z,1016.12
2022-10-29T05:50:29.398Z,1016.11
2022-10-29T05:51:29.628Z,1016.17
2022-10-29T05:52:30.021Z,1016.19
2022-10-29T05:53:30.272Z,1016.17
2022-10-29T05:54:30.502Z,1016.13
2022-10-29T05:55:30.745Z,1016.14
2022-10-29T05:56:30.982Z,1016.12
2022-10-29T05:57:31.264Z,1016.12
2022-10-29T05:58:31.522Z,1016.14
2022-10-29T05:59:33.708Z,1016.11
2022-10-29T06:00:32.024Z,1016.15
2022-10-29T06:01:32.363Z,1016.16
2022-10-29T06:02:32.670Z,1016.17
2022-10-29T06:03:33.012Z,1016.16
2022-10-29T06:04:33.235Z,1016.09
2022-10-29T06:05:33.494Z,1016.17
2022-10-29T06:06:33.815Z,1016.15
2022-10-29T06:07:34.095Z,1016.12
2022-10-29T06:08:34.358Z,1016.15
2022-10-29T06:09:34.594Z,1016.08
2022-10-29T06:10:34.859Z,1016.21
2022-10-29T06:11:35.099Z,1016.15
2022-10-29T06:12:35.356Z,1016.19
2022-10-29T06:13:35.619Z,1016.15
2022-10-29T06:14:35.849Z,1016.14
2022-10-29T06:15:36.130Z,1016.18
2022-10-29T06:16:36.388Z,1016.16
2022-10-29T06:17:36.633Z,1016.21
2022-10-29T06:18:36.898Z,1016.21
2022-10-29T06:19:37.208Z,1016.27
2022-10-29T06:20:37.356Z,1016.20
2022-10-29T06:21:37.600Z,1016.20
2022-10-29T06:22:37.832Z,1016.24
2022-10-29T06:23:38.124Z,1016.26
2022-10-29T06:24:38.391Z,1016.30
2022-10-29T06:25:38.623Z,1016.34
2022-10-29T06:26:38.891Z,1016.36
2022-10-29T06:27:39.154Z,1016.41
2022-10-29T06:28:39.414Z,1016.41
2022-10-29T06:29:39.663Z,1016.45
2022-10-29T06:30:39.961Z,1016.50
2022-10-29T06:31:40.222Z,1016.47
2022-10-29T06:32:40.484Z,1016.49
2022-10-29T06:33:40.768Z,1016.47
2022-10-29T06:34:41.016Z,1016.47
2022-10-29T06:35:41.265Z,1016.44
2022-10-29T06:36:41.525Z,1016.46
2022-10-29T06:37:41.798Z,1016.54
2022-10-29T06:38:42.085Z,1016.53
2022-10-29T06:39:42.387Z,1016.58
2022-10-29T06:40:42.678Z,1016.56
2022-10-29T06:41:42.928Z,1016.58
2022-10-29T06:42:43.179Z,1016.53
2022-10-29T06:43:43.482Z,1016.55
2022-10-29T06:44:43.740Z,1016.49
2022-10-29T06:45:43.980Z,1016.53
2022-10-29T06:46:44.229Z,1016.57
2022-10-29T06:47:44.481Z,1016.64
2022-10-29T06:48:44.741Z,1016.66
2022-10-29T06:49:45.000Z,1016.62
2022-10-29T06:50:45.241Z,1016.60
2022-10-29T06:51:45.491Z,1016.62
2022-10-29T06:52:45.732Z,1016.65
2022-10-29T06:53:46.003Z,1016.59
2022-10-29T06:54:46.281Z,1016.62
2022-10-29T06:55:46.505Z,1016.61
2022-10-29T06:56:46.764Z,1016.54
2022-10-29T06:57:47.073Z,1016.62
2022-10-29T06:58:47.322Z,1016.69
2022-10-29T06:59:47.585Z,1016.61
2022-10-29T07:00:47.984Z,1016.58
2022-10-29T07:01:48.098Z,1016.49
2022-10-29T07:02:48.408Z,1016.39
2022-10-29T07:03:48.678Z,1016.39
2022-10-29T07:04:48.955Z,1016.34
2022-10-29T07:05:49.227Z,1016.46
2022-10-29T07:06:49.519Z,1016.47
2022-10-29T07:07:49.760Z,1016.48
2022-10-29T07:08:50.068Z,1016.51
2022-10-29T07:09:50.348Z,1016.50
2022-10-29T07:10:50.643Z,1016.55
2022-10-29T07:11:50.918Z,1016.58
2022-10-29T07:12:51.258Z,1016.60
2022-10-29T07:13:51.531Z,1016.65
2022-10-29T07:14:51.883Z,1016.71
2022-10-29T07:15:52.088Z,1016.75
2022-10-29T07:16:52.342Z,1016.71
2022-10-29T07:17:52.891Z,1016.60
2022-10-29T07:18:52.904Z,1016.65
2022-10-29T07:19:53.214Z,1016.64
2022-10-29T07:20:53.503Z,1016.62
2022-10-29T07:21:53.763Z,1016.69
2022-10-29T07:22:54.015Z,1016.65
2022-10-29T07:23:54.402Z,1016.69
2022-10-29T07:24:57.128Z,1016.66
2022-10-29T07:25:55.863Z,1016.69
2022-10-29T07:26:55.286Z,1016.69
2022-10-29T07:27:55.906Z,1016.73
2022-10-29T07:28:55.712Z,1016.71
2022-10-29T07:29:55.900Z,1016.68
2022-10-29T07:30:56.222Z,1016.68
2022-10-29T07:31:56.518Z,1016.76
2022-10-29T07:32:56.797Z,1016.80
2022-10-29T07:33:57.078Z,1016.84
2022-10-29T07:34:57.370Z,1016.85
2022-10-29T07:35:57.705Z,1016.88
2022-10-29T07:36:57.990Z,1016.86
2022-10-29T07:37:58.613Z,1016.91
2022-10-29T07:38:58.583Z,1016.83
2022-10-29T07:39:58.898Z,1016.93
2022-10-29T07:40:59.197Z,1016.91
2022-10-29T07:41:59.633Z,1016.89
2022-10-29T07:42:59.759Z,1016.91
2022-10-29T07:44:00.055Z,1016.95
2022-10-29T07:45:00.340Z,1016.93
2022-10-29T07:46:00.768Z,1016.99
2022-10-29T07:47:00.965Z,1016.99
2022-10-29T07:48:02.878Z,1016.96
2022-10-29T07:49:01.568Z,1016.94
2022-10-29T07:50:01.727Z,1016.98
2022-10-29T07:51:01.957Z,1016.97
2022-10-29T07:52:02.243Z,1016.97
2022-10-29T07:53:02.678Z,1016.96
2022-10-29T07:54:02.836Z,1017.04
2022-10-29T07:55:03.104Z,1017.09
2022-10-29T07:56:03.396Z,1017.09
2022-10-29T07:57:03.745Z,1017.03
2022-10-29T07:58:03.973Z,1017.05
2022-10-29T07:59:04.347Z,1017.07
2022-10-29T08:00:04.541Z,1017.03
2022-10-29T08:01:04.773Z,1017.06
2022-10-29T08:02:05.126Z,1017.04
2022-10-29T08:03:05.318Z,1017.04
2022-10-29T08:04:05.797Z,1017.02
2022-10-29T08:05:05.890Z,1017.02
2022-10-29T08:06:06.453Z,1017.05
2022-10-29T08:07:06.962Z,1017.02
2022-10-29T08:08:06.758Z,1017.10
2022-10-29T08:09:07.081Z,1017.11
2022-10-29T08:10:07.354Z,1017.10
2022-10-29T08:11:07.661Z,1017.20
2022-10-29T08:12:07.962Z,1017.19
2022-10-29T08:13:08.380Z,1017.23
2022-10-29T08:14:08.638Z,1017.21
2022-10-29T08:15:08.793Z,1017.21
2022-10-29T08:16:09.073Z,1017.23
2022-10-29T08:17:09.393Z,1017.25
2022-10-29T08:18:09.686Z,1017.28
2022-10-29T08:19:09.967Z,1017.35
2022-10-29T08:20:10.315Z,1017.32
2022-10-29T08:21:10.606Z,1017.30
2022-10-29T08:22:10.948Z,1017.30
2022-10-29T08:23:11.357Z,1017.23
2022-10-29T08:24:11.466Z,1017.21
2022-10-29T08:25:11.787Z,1017.27
2022-10-29T08:26:12.066Z,1017.23
2022-10-29T08:27:12.430Z,1017.19
2022-10-29T08:28:12.950Z,1017.24
2022-10-29T08:29:12.987Z,1017.12
2022-10-29T08:30:13.422Z,1017.19
2022-10-29T08:31:13.544Z,1017.21
2022-10-29T08:32:13.871Z,1017.28
2022-10-29T08:33:14.162Z,1017.30
2022-10-29T08:34:14.468Z,1017.35
2022-10-29T08:35:14.772Z,1017.37
2022-10-29T08:36:15.035Z,1017.36
2022-10-29T08:37:15.451Z,1017.36
2022-10-29T08:38:15.613Z,1017.38
2022-10-29T08:39:15.903Z,1017.41
2022-10-29T08:40:16.220Z,1017.47
2022-10-29T08:41:16.505Z,1017.35
2022-10-29T08:42:16.664Z,1017.41
2022-10-29T08:43:16.964Z,1017.38
2022-10-29T08:44:17.225Z,1017.34
2022-10-29T08:45:17.498Z,1017.35
2022-10-29T08:46:17.765Z,1017.37
2022-10-29T08:47:18.016Z,1017.34
2022-10-29T08:48:18.289Z,1017.33
2022-10-29T08:49:18.537Z,1017.33
2022-10-29T08:50:18.797Z,1017.42
2022-10-29T08:51:19.034Z,1017.29
2022-10-29T08:52:19.308Z,1017.41
2022-10-29T08:53:23.246Z,1017.45
2022-10-29T08:54:36.284Z,1017.45
2022-10-29T08:55:21.169Z,1017.47
2022-10-29T08:56:20.469Z,1017.45
2022-10-29T08:57:20.727Z,1017.39
2022-10-29T08:58:20.997Z,1017.38
2022-10-29T08:59:21.275Z,1017.48
2022-10-29T09:00:21.609Z,1017.47
2022-10-29T09:01:21.924Z,1017.47
2022-10-29T09:02:22.056Z,1017.47
2022-10-29T09:03:22.294Z,1017.48
2022-10-29T09:04:22.553Z,1017.50
2022-10-29T09:05:22.792Z,1017.39
2022-10-29T09:06:23.072Z,1017.40
2022-10-29T09:07:23.325Z,1017.37
2022-10-29T09:08:23.655Z,1017.35
2022-10-29T09:09:23.944Z,1017.37
2022-10-29T09:10:24.206Z,1017.41
2022-10-29T09:11:24.453Z,1017.41
2022-10-29T09:12:25.275Z,1017.52
2022-10-29T09:13:24.968Z,1017.55
2022-10-29T09:14:25.224Z,1017.54
2022-10-29T09:15:25.475Z,1017.53
2022-10-29T09:16:25.716Z,1017.52
2022-10-29T09:17:25.969Z,1017.53
2022-10-29T09:18:26.279Z,1017.45
2022-10-29T09:19:26.533Z,1017.51
2022-10-29T09:20:26.807Z,1017.47
2022-10-29T09:21:27.078Z,1017.53
2022-10-29T09:22:27.347Z,1017.49
2022-10-29T09:23:27.632Z,1017.57
2022-10-29T09:24:27.901Z,1017.56
2022-10-29T09:25:28.254Z,1017.63
2022-10-29T09:26:28.390Z,1017.58
2022-10-29T09:27:28.664Z,1017.56
2022-10-29T09:28:28.970Z,1017.58
2022-10-29T09:29:29.211Z,1017.55
2022-10-29T09:30:29.513Z,1017.56
2022-10-29T09:31:29.792Z,1017.56
2022-10-29T09:32:30.073Z,1017.50
2022-10-29T09:33:30.354Z,1017.44
2022-10-29T09:34:30.671Z,1017.46
2022-10-29T09:35:30.914Z,1017.50
2022-10-29T09:36:31.189Z,1017.58
2022-10-29T09:37:31.465Z,1017.53
2022-10-29T09:38:31.743Z,1017.53
2022-10-29T09:39:34.291Z,1017.56
2022-10-29T09:40:32.275Z,1017.54
2022-10-29T09:41:32.564Z,1017.59
2022-10-29T09:42:32.867Z,1017.56
2022-10-29T09:43:33.174Z,1017.60
2022-10-29T09:44:33.548Z,1017.60
2022-10-29T09:45:33.655Z,1017.63
2022-10-29T09:46:33.945Z,1017.66
2022-10-29T09:47:34.198Z,1017.69
2022-10-29T09:48:34.503Z,1017.68
2022-10-29T09:49:34.759Z,1017.68
2022-10-29T09:50:35.043Z,1017.70
2022-10-29T09:51:35.329Z,1017.67
2022-10-29T09:52:35.630Z,1017.64
2022-10-29T09:53:35.919Z,1017.62
2022-10-29T09:54:36.264Z,1017.54
2022-10-29T09:55:36.469Z,1017.53
2022-10-29T09:56:36.722Z,1017.61
2022-10-29T09:57:36.993Z,1017.53
2022-10-29T09:58:37.274Z,1017.57
2022-10-29T09:59:37.532Z,1017.53
2022-10-29T10:00:37.802Z,1017.52
2022-10-29T10:01:38.111Z,1017.55
2022-10-29T10:02:38.529Z,1017.47
2022-10-29T10:03:38.633Z,1017.45
2022-10-29T10:04:38.896Z,1017.46
2022-10-29T10:05:39.157Z,1017.44
2022-10-29T10:06:41.412Z,1017.41
2022-10-29T10:07:39.728Z,1017.41
2022-10-29T10:08:39.997Z,1017.35
2022-10-29T10:09:40.257Z,1017.36
2022-10-29T10:10:40.520Z,1017.38
2022-10-29T10:11:40.851Z,1017.37
2022-10-29T10:12:41.139Z,1017.32
2022-10-29T10:13:41.420Z,1017.41
2022-10-29T10:14:41.678Z,1017.37
2022-10-29T10:15:41.940Z,1017.39
2022-10-29T10:16:42.210Z,1017.43
2022-10-29T10:17:42.478Z,1017.43
2022-10-29T10:19:43.000Z,1017.43
2022-10-29T10:20:43.261Z,1017.35
2022-10-29T10:21:43.503Z,1017.33
2022-10-29T10:22:43.795Z,1017.31
2022-10-29T10:23:44.081Z,1017.25
2022-10-29T10:24:44.333Z,1017.26
2022-10-29T10:25:44.657Z,1017.23
2022-10-29T10:26:44.920Z,1017.20
2022-10-29T10:27:45.185Z,1017.18
2022-10-29T10:28:45.445Z,1017.09
2022-10-29T10:29:45.697Z,1017.14
2022-10-29T10:30:45.975Z,1017.08
2022-10-29T10:31:46.282Z,1017.12
2022-10-29T10:32:46.617Z,1017.03
2022-10-29T10:33:46.848Z,1017.04
2022-10-29T10:34:47.126Z,1017.02
2022-10-29T10:35:47.400Z,1017.08
2022-10-29T10:36:47.656Z,1017.09
2022-10-29T10:37:48.032Z,1017.14
2022-10-29T10:38:48.163Z,1017.14
2022-10-29T10:39:48.548Z,1017.06
2022-10-29T10:40:48.829Z,1017.12
2022-10-29T10:41:49.081Z,1017.12
2022-10-29T10:42:49.373Z,1017.14
2022-10-29T10:43:49.623Z,1017.06
2022-10-29T10:44:49.892Z,1017.13
2022-10-29T10:45:50.142Z,1017.14
2022-10-29T10:46:50.433Z,1017.16
2022-10-29T10:47:50.755Z,1017.12
2022-10-29T10:48:50.997Z,1017.11
2022-10-29T10:49:51.256Z,1017.05
2022-10-29T10:50:51.535Z,1017.01
2022-10-29T10:51:51.784Z,1017.01
2022-10-29T10:52:52.068Z,1017.02
2022-10-29T10:53:52.364Z,1017.04
2022-10-29T10:54:52.604Z,1017.06
2022-10-29T10:55:52.844Z,1017.01
2022-10-29T10:56:53.117Z,1017.09
2022-10-29T10:57:53.392Z,1017.08
2022-10-29T10:58:53.696Z,1017.06
2022-10-29T10:59:53.950Z,1017.08
2022-10-29T11:00:54.323Z,1017.01
2022-10-29T11:01:54.591Z,1017.07
2022-10-29T11:02:55.255Z,1017.08
2022-10-29T11:03:55.031Z,1017.10
2022-10-29T11:04:55.312Z,1017.07
2022-10-29T11:05:55.573Z,1017.14
2022-10-29T11:06:55.857Z,1017.17
2022-10-29T11:07:56.584Z,1017.13
2022-10-29T11:08:56.440Z,1017.08
2022-10-29T11:09:56.693Z,1017.05
2022-10-29T11:10:56.953Z,1017.03
2022-10-29T11:11:59.017Z,1017.00
2022-10-29T11:12:57.512Z,1017.04
2022-10-29T11:13:57.803Z,1016.97
2022-10-29T11:14:58.081Z,1016.99
2022-10-29T11:15:58.341Z,1016.93
2022-10-29T11:16:58.648Z,1016.96
2022-10-29T11:17:59.150Z,1016.97
2022-10-29T11:18:59.174Z,1016.92
2022-10-29T11:19:59.425Z,1016.96
2022-10-29T11:20:59.707Z,1016.88
2022-10-29T11:21:59.979Z,1016.92
2022-10-29T11:23:01.008Z,1016.89
2022-10-29T11:24:00.590Z,1016.91
2022-10-29T11:25:00.857Z,1016.92
2022-10-29T11:26:01.149Z,1016.86
2022-10-29T11:27:01.407Z,1016.83
2022-10-29T11:28:01.709Z,1016.87
2022-10-29T11:29:01.990Z,1016.82
2022-10-29T11:30:02.233Z,1016.79
2022-10-29T11:31:03.278Z,1016.70
2022-10-29T11:32:02.843Z,1016.77
2022-10-29T11:33:03.140Z,1016.85
2022-10-29T11:34:03.421Z,1016.77
2022-10-29T11:35:03.736Z,1016.83
2022-10-29T11:36:03.977Z,1016.88
2022-10-29T11:37:04.241Z,1016.89
2022-10-29T11:38:04.666Z,1016.91
2022-10-29T11:39:04.795Z,1016.87
2022-10-29T11:40:05.134Z,1016.83
2022-10-29T11:41:05.406Z,1016.83
2022-10-29T11:42:05.711Z,1016.75
2022-10-29T11:43:09.140Z,1016.70
2022-10-29T11:44:06.206Z,1016.69
2022-10-29T11:45:06.638Z,1016.72
2022-10-29T11:46:06.739Z,1016.67
2022-10-29T11:47:07.069Z,1016.70
2022-10-29T11:48:07.346Z,1016.76
2022-10-29T11:49:07.828Z,1016.73
2022-10-29T11:50:07.947Z,1016.73
2022-10-29T11:51:08.184Z,1016.73
2022-10-29T11:52:08.519Z,1016.76
2022-10-29T11:53:08.839Z,1016.63
2022-10-29T11:54:09.147Z,1016.64
2022-10-29T11:55:09.424Z,1016.62
2022-10-29T11:56:09.750Z,1016.58
2022-10-29T11:57:10.131Z,1016.53
2022-10-29T11:58:10.425Z,1016.52
2022-10-29T11:59:10.534Z,1016.52
2022-10-29T12:00:11.017Z,1016.56
2022-10-29T12:01:11.325Z,1016.50
2022-10-29T12:02:12.004Z,1016.48
2022-10-29T12:03:11.646Z,1016.50
2022-10-29T12:04:12.230Z,1016.51
2022-10-29T12:05:12.181Z,1016.48
2022-10-29T12:06:12.467Z,1016.44
2022-10-29T12:07:12.762Z,1016.55
2022-10-29T12:08:13.078Z,1016.51
2022-10-29T12:09:13.341Z,1016.47
2022-10-29T12:10:13.638Z,1016.50
2022-10-29T12:11:13.928Z,1016.45
2022-10-29T12:12:14.247Z,1016.43
2022-10-29T12:13:14.578Z,1016.37
2022-10-29T12:14:14.866Z,1016.38
2022-10-29T12:15:15.219Z,1016.42
2022-10-29T12:16:15.496Z,1016.37